Time;durP1;ratioP1;P1;durP2;ratioP2;P2;SDS_P1;SDS_P2;PMS_P1;PMS_P2;Temp;Humidity;BMP_temperature;BMP_pressure;BME280_temperature;BME280_humidity;BME280_pressure;Samples;Min_cycle;Max_cycle;Signal;HPM_P1;HPM_P2
2021/06/21 00:00:09;;;;;;;1.90;1.25;;;;;;;14.74;100.00;92921.16;5071532;28;20052;-81
2021/06/21 00:02:36;;;;;;;2.42;1.30;;;;;;;14.66;100.00;92923.16;5071652;28;20052;-80
2021/06/21 00:05:03;;;;;;;1.83;1.08;;;;;;;14.56;100.00;92917.88;5071565;28;20048;-81
2021/06/21 00:07:30;;;;;;;1.63;0.75;;;;;;;14.60;100.00;92931.88;5071878;28;20055;-81
2021/06/21 00:09:58;;;;;;;1.95;0.73;;;;;;;14.60;100.00;92908.63;5071635;28;20804;-80
2021/06/21 00:12:25;;;;;;;1.90;0.93;;;;;;;14.62;100.00;92910.97;5071711;28;20072;-81
2021/06/21 00:14:52;;;;;;;2.03;0.98;;;;;;;14.58;100.00;92915.81;5071555;28;20507;-81
2021/06/21 00:17:19;;;;;;;3.13;1.40;;;;;;;14.47;100.00;92914.94;5071505;28;20523;-81
2021/06/21 00:19:46;;;;;;;1.88;0.93;;;;;;;14.47;100.00;92914.13;5071911;28;20365;-80
2021/06/21 00:22:14;;;;;;;2.38;0.95;;;;;;;14.03;100.00;92843.38;5071274;28;20106;-81
2021/06/21 00:24:41;;;;;;;1.88;1.05;;;;;;;14.46;100.00;92905.63;5071412;28;20565;-80
2021/06/21 00:27:10;;;;;;;2.92;1.30;;;;;;;14.45;100.00;92895.50;5071077;28;20102;-80
2021/06/21 00:29:37;;;;;;;1.55;0.88;;;;;;;14.48;100.00;92890.66;5071283;28;21038;-80
2021/06/21 00:32:04;;;;;;;2.67;1.15;;;;;;;14.48;100.00;92900.22;5071210;28;20577;-80
2021/06/21 00:34:31;;;;;;;4.55;1.48;;;;;;;14.47;100.00;92908.97;5071048;28;20053;-81
2021/06/21 00:36:58;;;;;;;1.40;0.95;;;;;;;14.43;100.00;92904.28;5071271;28;20071;-80
2021/06/21 00:39:25;;;;;;;2.13;1.13;;;;;;;14.37;100.00;92891.56;5071198;28;20055;-80
2021/06/21 00:41:51;;;;;;;2.38;1.35;;;;;;;14.41;100.00;92887.47;5070935;28;20048;-80
2021/06/21 00:44:20;;;;;;;2.45;1.08;;;;;;;14.12;100.00;92854.06;5071247;28;20041;-81
2021/06/21 00:46:46;;;;;;;2.08;1.35;;;;;;;14.36;100.00;92895.16;5071051;28;20044;-81
2021/06/21 00:49:13;;;;;;;2.75;1.02;;;;;;;14.25;100.00;92881.31;5070616;28;20056;-81
2021/06/21 00:51:40;;;;;;;1.75;1.10;;;;;;;14.28;100.00;92883.44;5070180;28;20045;-81
2021/06/21 00:54:07;;;;;;;2.03;1.13;;;;;;;14.25;100.00;92878.75;5070730;28;20045;-80
2021/06/21 00:56:34;;;;;;;1.58;0.95;;;;;;;14.20;100.00;92876.88;5070924;28;20048;-81
2021/06/21 00:59:03;;;;;;;2.08;1.17;;;;;;;14.22;100.00;92880.03;5070831;28;20061;-81
2021/06/21 01:01:31;;;;;;;2.63;1.40;;;;;;;14.20;100.00;92882.06;5070925;28;20045;-81
2021/06/21 01:03:59;;;;;;;1.95;1.20;;;;;;;14.17;100.00;92877.38;5070450;28;20049;-80
2021/06/21 01:06:27;;;;;;;2.95;1.30;;;;;;;14.08;100.00;92860.72;5070351;28;20052;-81
2021/06/21 01:08:54;;;;;;;2.08;0.88;;;;;;;14.03;100.00;92864.03;5070434;28;20054;-81
2021/06/21 01:11:23;;;;;;;2.45;1.40;;;;;;;14.11;100.00;92883.47;5070375;28;20852;-81
2021/06/21 01:14:06;;;;;;;3.08;1.20;;;;;;;14.06;100.00;92878.28;5070291;28;20044;-81
2021/06/21 01:16:42;;;;;;;1.70;1.08;;;;;;;13.93;100.00;92869.06;5070264;28;20048;-81
2021/06/21 01:19:16;;;;;;;2.00;0.90;;;;;;;13.96;100.00;92878.91;5070137;28;20045;-80
2021/06/21 01:22:10;;;;;;;2.33;1.17;;;;;;;13.88;100.00;92873.13;5070187;28;20847;-81
2021/06/21 01:25:08;;;;;;;2.78;1.35;;;;;;;13.84;100.00;92881.59;5070113;28;20045;-80
2021/06/21 01:27:51;;;;;;;2.10;1.17;;;;;;;13.82;100.00;92875.88;5070458;28;20159;-81
2021/06/21 01:30:21;;;;;;;2.38;0.98;;;;;;;13.72;100.00;92879.13;5069952;28;20052;-81
2021/06/21 01:32:52;;;;;;;2.80;0.93;;;;;;;13.76;100.00;92883.56;5070095;28;20049;-80
2021/06/21 01:35:28;;;;;;;2.10;1.30;;;;;;;13.81;100.00;92884.66;5070095;28;20045;-80
2021/06/21 01:37:58;;;;;;;2.80;1.55;;;;;;;13.83;100.00;92883.41;5070102;28;20057;-81
2021/06/21 01:40:27;;;;;;;2.42;1.20;;;;;;;13.83;100.00;92880.03;5069996;28;20409;-81
2021/06/21 01:42:58;;;;;;;3.10;1.42;;;;;;;13.81;100.00;92879.50;5070134;28;20550;-81
2021/06/21 01:45:26;;;;;;;2.95;1.52;;;;;;;13.73;100.00;92884.03;5069968;28;20068;-81
2021/06/21 01:47:55;;;;;;;2.65;1.30;;;;;;;13.60;100.00;92866.28;5069947;28;20110;-80
2021/06/21 01:50:25;;;;;;;2.15;1.00;;;;;;;13.66;100.00;92877.47;5069746;28;20052;-81
2021/06/21 01:52:59;;;;;;;1.98;1.00;;;;;;;13.67;100.00;92874.66;5069659;28;20439;-81
2021/06/21 01:55:27;;;;;;;2.10;1.30;;;;;;;13.60;100.00;92879.19;5069771;28;20044;-81
2021/06/21 01:57:58;;;;;;;1.70;1.15;;;;;;;13.58;100.00;92876.06;5069863;28;20052;-81
2021/06/21 02:00:25;;;;;;;2.10;1.17;;;;;;;13.54;100.00;92873.19;5069792;28;20609;-81
2021/06/21 02:02:56;;;;;;;6.18;2.50;;;;;;;13.51;100.00;92865.16;5069667;28;20048;-81
2021/06/21 02:05:24;;;;;;;2.10;0.88;;;;;;;13.49;100.00;92867.97;5069745;28;20051;-80
2021/06/21 02:07:52;;;;;;;1.80;1.10;;;;;;;13.48;100.00;92880.06;5069393;28;20056;-81
2021/06/21 02:10:19;;;;;;;2.33;1.52;;;;;;;13.44;100.00;92868.63;5069587;28;20052;-82
2021/06/21 02:12:48;;;;;;;2.60;1.23;;;;;;;13.46;100.00;92866.63;5069481;28;20044;-82
2021/06/21 02:15:16;;;;;;;2.33;1.42;;;;;;;13.47;100.00;92886.25;5069366;28;20048;-82
2021/06/21 02:17:44;;;;;;;2.80;1.30;;;;;;;13.45;100.00;92887.47;5069137;28;20055;-82
2021/06/21 02:20:15;;;;;;;3.58;1.98;;;;;;;13.48;100.00;92897.34;5069546;28;20067;-82
2021/06/21 02:22:42;;;;;;;2.45;1.48;;;;;;;13.45;100.00;92887.47;5069324;28;20055;-82
2021/06/21 02:25:11;;;;;;;3.22;1.70;;;;;;;13.31;100.00;92871.53;5069520;28;20450;-82
2021/06/21 02:27:39;;;;;;;2.00;1.30;;;;;;;13.46;100.00;92884.69;5069456;28;20110;-82
2021/06/21 02:30:09;;;;;;;3.58;1.80;;;;;;;13.45;100.00;92882.31;5068999;28;20044;-82
2021/06/21 02:32:37;;;;;;;1.65;0.95;;;;;;;13.46;100.00;92882.09;5069391;28;20458;-82
2021/06/21 02:35:06;;;;;;;2.38;1.27;;;;;;;13.36;100.00;92877.56;5069213;28;20052;-82
2021/06/21 02:37:36;;;;;;;5.95;1.65;;;;;;;13.25;100.00;92867.31;5069347;28;20048;-82
2021/06/21 02:40:04;;;;;;;4.45;1.95;;;;;;;13.39;100.00;92896.16;5069446;28;20051;-83
2021/06/21 02:42:30;;;;;;;2.47;1.33;;;;;;;13.27;100.00;92881.53;5069365;28;20049;-83
2021/06/21 02:44:57;;;;;;;1.98;1.40;;;;;;;13.41;100.00;92896.69;5069305;28;20053;-82
2021/06/21 02:47:24;;;;;;;5.28;1.10;;;;;;;13.42;100.00;92895.69;5068847;28;20546;-81
2021/06/21 02:49:51;;;;;;;1.52;0.80;;;;;;;13.32;100.00;92885.97;5068973;28;20090;-81
2021/06/21 02:52:27;;;;;;;2.80;1.30;;;;;;;13.33;100.00;92897.88;5068890;28;20049;-81
2021/06/21 02:55:07;;;;;;;;;;;;;;;13.33;100.00;92895.31;5069666;28;20056;-81
2021/06/21 02:57:41;;;;;;;1.85;1.40;;;;;;;13.29;100.00;92889.81;5069032;28;19947;-81
2021/06/21 03:00:09;;;;;;;3.20;1.55;;;;;;;13.23;100.00;92883.00;5069096;28;20135;-81
2021/06/21 03:02:38;;;;;;;2.30;1.40;;;;;;;13.29;100.00;92889.03;5069114;28;20055;-81
2021/06/21 03:05:07;;;;;;;3.25;1.60;;;;;;;13.29;100.00;92894.19;5068679;28;20055;-81
2021/06/21 03:07:36;;;;;;;3.40;1.58;;;;;;;13.34;100.00;92889.13;5068972;28;20466;-81
2021/06/21 03:10:06;;;;;;;2.53;1.52;;;;;;;13.32;100.00;92886.78;5068806;28;20072;-81
2021/06/21 03:12:34;;;;;;;3.50;2.45;;;;;;;13.28;100.00;92892.63;5068367;28;20044;-81
2021/06/21 03:15:00;;;;;;;1.88;1.02;;;;;;;13.29;100.00;92894.97;5072193;28;20044;-81
2021/06/21 03:17:28;;;;;;;3.97;1.60;;;;;;;13.22;100.00;92895.13;5068266;28;20049;-81
2021/06/21 03:19:55;;;;;;;2.70;1.35;;;;;;;13.25;100.00;92885.34;5071151;28;20040;-80
2021/06/21 03:22:25;;;;;;;3.05;1.40;;;;;;;13.15;100.00;92866.13;5072220;28;20458;-81
2021/06/21 03:24:53;;;;;;;2.42;1.45;;;;;;;13.25;100.00;92880.19;5072265;28;20100;-81
2021/06/21 03:27:29;;;;;;;4.32;2.10;;;;;;;13.26;100.00;92874.03;5072165;28;20055;-80
2021/06/21 03:29:56;;;;;;;3.30;2.13;;;;;;;13.32;100.00;92875.66;5072133;28;20040;-80
2021/06/21 03:32:29;;;;;;;2.50;1.55;;;;;;;13.33;100.00;92890.91;5072332;28;20362;-80
2021/06/21 03:34:58;;;;;;;2.67;1.55;;;;;;;13.34;100.00;92882.16;5072128;28;20048;-80
2021/06/21 03:37:25;;;;;;;2.67;1.60;;;;;;;13.36;100.00;92884.50;5072515;28;20059;-80
2021/06/21 03:39:52;;;;;;;6.13;2.33;;;;;;;13.25;100.00;92867.31;5072243;28;20049;-81
2021/06/21 03:42:19;;;;;;;6.63;1.88;;;;;;;13.36;100.00;92882.72;5071841;28;20051;-80
2021/06/21 03:44:48;;;;;;;3.88;1.92;;;;;;;13.40;100.00;92884.81;5072149;28;20101;-80
2021/06/21 03:47:16;;;;;;;3.50;1.55;;;;;;;13.40;100.00;92879.66;5071890;28;20060;-80
2021/06/21 03:49:48;;;;;;;5.00;1.75;;;;;;;13.48;100.00;92898.13;5071927;28;20045;-79
2021/06/21 03:52:15;;;;;;;3.60;2.13;;;;;;;13.57;100.00;92903.66;5072033;28;20052;-80
2021/06/21 03:54:42;;;;;;;4.65;2.40;;;;;;;13.60;100.00;92897.25;5071789;28;20625;-80
2021/06/21 03:57:10;;;;;;;3.25;1.63;;;;;;;13.65;100.00;92899.16;5072016;28;20412;-80
2021/06/21 03:59:37;;;;;;;7.47;2.38;;;;;;;13.71;100.00;92903.38;5071692;28;20049;-80
2021/06/21 04:02:06;;;;;;;6.30;2.40;;;;;;;13.64;100.00;92895.78;5071441;28;20056;-80
2021/06/21 04:04:33;;;;;;;3.30;2.00;;;;;;;13.69;100.00;92911.34;5071852;28;20048;-80
2021/06/21 04:06:59;;;;;;;6.38;2.38;;;;;;;13.76;100.00;92914.53;5071699;28;20048;-81
2021/06/21 04:09:26;;;;;;;5.43;2.10;;;;;;;13.83;100.00;92921.31;5071622;28;20053;-81
2021/06/21 04:11:53;;;;;;;5.53;2.60;;;;;;;13.92;100.00;92919.16;5071864;28;20052;-81
2021/06/21 04:14:20;;;;;;;9.20;3.28;;;;;;;14.01;100.00;92918.50;5071593;28;20055;-81
2021/06/21 04:16:47;;;;;;;4.55;2.78;;;;;;;14.11;100.00;92917.84;5071638;28;20447;-81
2021/06/21 04:19:15;;;;;;;3.38;2.03;;;;;;;14.15;100.00;92916.34;5071250;28;20557;-81
2021/06/21 04:21:42;;;;;;;2.72;1.65;;;;;;;14.23;100.00;92922.91;5071330;28;20496;-81
2021/06/21 04:24:09;;;;;;;4.75;2.72;;;;;;;14.27;100.00;92916.22;5071009;28;20066;-81
2021/06/21 04:26:37;;;;;;;5.25;3.00;;;;;;;14.33;100.00;92922.25;5071432;28;20049;-81
2021/06/21 04:29:04;;;;;;;7.18;3.08;;;;;;;14.39;100.00;92923.88;5071154;28;20392;-80
2021/06/21 04:31:31;;;;;;;4.75;2.72;;;;;;;14.47;100.00;92925.25;5071474;28;20135;-80
2021/06/21 04:33:58;;;;;;;5.78;3.00;;;;;;;14.48;100.00;92919.06;5071474;28;20051;-80
2021/06/21 04:36:26;;;;;;;5.05;2.50;;;;;;;14.64;100.00;92927.78;5071206;28;20045;-80
2021/06/21 04:38:53;;;;;;;5.35;3.08;;;;;;;14.59;100.00;92919.97;5071512;28;20398;-81
2021/06/21 04:41:20;;;;;;;10.75;3.67;;;;;;;14.69;100.00;92922.66;5071073;28;20055;-81
2021/06/21 04:43:47;;;;;;;6.53;2.58;;;;;;;14.68;100.00;92925.50;5071132;28;20045;-81
2021/06/21 04:46:14;;;;;;;9.50;3.28;;;;;;;14.64;100.00;92908.91;5070960;28;20058;-81
2021/06/21 04:48:42;;;;;;;9.38;2.90;;;;;;;14.60;100.00;92902.66;5071151;28;20090;-81
2021/06/21 04:51:09;;;;;;;5.25;3.17;;;;;;;14.80;100.00;92926.19;5070834;28;20080;-81
2021/06/21 04:53:38;;;;;;;4.50;2.30;;;;;;;14.90;100.00;92925.50;5070826;28;20045;-81
2021/06/21 04:56:05;;;;;;;5.05;2.38;;;;;;;14.94;100.00;92907.69;5070839;28;20060;-81
2021/06/21 04:58:34;;;;;;;5.32;2.10;;;;;;;15.10;100.00;92926.72;5070641;28;20549;-81
2021/06/21 05:01:02;;;;;;;4.30;1.90;;;;;;;15.26;100.00;92921.69;5070932;28;20056;-81
2021/06/21 05:03:29;;;;;;;4.30;2.22;;;;;;;15.35;100.00;92933.16;5070628;28;20526;-81
2021/06/21 05:05:56;;;;;;;3.28;1.65;;;;;;;15.46;100.00;92928.84;5070611;28;20044;-81
2021/06/21 05:08:24;;;;;;;5.20;2.10;;;;;;;15.56;100.00;92928.91;5070660;28;20051;-81
2021/06/21 05:10:52;;;;;;;4.95;2.00;;;;;;;15.63;100.00;92939.88;5070401;28;20041;-81
2021/06/21 05:13:19;;;;;;;3.17;1.67;;;;;;;15.72;100.00;92937.59;5070645;28;20078;-81
2021/06/21 05:15:45;;;;;;;5.55;2.97;;;;;;;15.82;100.00;92933.50;5070400;28;20057;-81
2021/06/21 05:18:12;;;;;;;3.90;2.40;;;;;;;15.96;100.00;92929.47;5070272;28;20058;-81
2021/06/21 05:20:39;;;;;;;3.45;1.98;;;;;;;16.12;100.00;92921.81;5070438;28;20075;-81
2021/06/21 05:23:06;;;;;;;4.70;2.58;;;;;;;16.29;100.00;92925.00;5069956;28;20048;-81
2021/06/21 05:25:33;;;;;;;5.35;2.35;;;;;;;16.29;100.00;92925.00;5070631;28;20122;-82
2021/06/21 05:28:02;;;;;;;4.97;2.45;;;;;;;16.58;100.00;92933.41;5070433;28;20680;-81
2021/06/21 05:30:29;;;;;;;4.75;2.75;;;;;;;16.68;100.00;92936.81;5069895;28;20052;-81
2021/06/21 05:32:56;;;;;;;5.40;2.20;;;;;;;16.81;100.00;92934.81;5069992;28;20041;-81
2021/06/21 05:35:23;;;;;;;5.88;2.50;;;;;;;16.98;100.00;92931.22;5069913;28;20535;-81
2021/06/21 05:37:50;;;;;;;5.07;2.15;;;;;;;17.09;100.00;92936.19;5069661;28;20049;-81
2021/06/21 05:40:18;;;;;;;5.95;2.72;;;;;;;17.32;100.00;92928.94;5070066;28;20063;-81
2021/06/21 05:42:45;;;;;;;5.30;2.42;;;;;;;17.55;100.00;92929.47;5069708;28;20059;-82
2021/06/21 05:45:15;;;;;;;4.60;2.10;;;;;;;17.85;100.00;92924.53;5069785;28;20052;-82
2021/06/21 05:47:42;;;;;;;6.18;2.15;;;;;;;18.00;100.00;92919.31;5069850;28;20048;-82
2021/06/21 05:50:10;;;;;;;4.07;2.45;;;;;;;18.26;100.00;92928.91;5070088;28;20056;-82
2021/06/21 05:52:37;;;;;;;5.05;1.92;;;;;;;18.42;100.00;92914.81;5069750;28;20056;-82
2021/06/21 05:55:05;;;;;;;3.63;1.88;;;;;;;18.80;100.00;92930.00;5069743;28;20049;-82
2021/06/21 05:57:32;;;;;;;5.93;1.92;;;;;;;18.93;100.00;92910.44;5069689;28;20511;-81
2021/06/21 05:59:59;;;;;;;7.22;2.45;;;;;;;19.09;100.00;92931.19;5069851;28;20056;-82
2021/06/21 06:02:27;;;;;;;5.88;3.17;;;;;;;19.08;100.00;92908.81;5069726;28;20044;-81
2021/06/21 06:04:54;;;;;;;7.00;2.60;;;;;;;19.27;100.00;92935.00;5069558;28;20098;-82
2021/06/21 06:07:20;;;;;;;3.85;2.05;;;;;;;19.43;100.00;92907.00;5069371;28;20584;-82
2021/06/21 06:09:49;;;;;;;6.20;1.90;;;;;;;19.79;100.00;92933.81;5069641;28;20067;-82
2021/06/21 06:12:16;;;;;;;7.55;2.97;;;;;;;20.21;100.00;92929.81;5069315;28;20052;-82
2021/06/21 06:14:43;;;;;;;5.35;2.28;;;;;;;20.60;98.22;92930.69;5069430;28;20048;-81
2021/06/21 06:17:10;;;;;;;5.13;2.30;;;;;;;20.85;96.91;92915.00;5069666;28;20093;-82
2021/06/21 06:19:38;;;;;;;3.53;1.95;;;;;;;21.17;93.53;92932.63;5069560;28;20060;-82
2021/06/21 06:22:06;;;;;;;4.32;2.72;;;;;;;21.51;92.46;92924.84;5069399;28;20052;-83
2021/06/21 06:24:33;;;;;;;5.85;2.55;;;;;;;21.85;89.63;92914.13;5069309;28;20492;-83
2021/06/21 06:27:00;;;;;;;5.85;2.33;;;;;;;22.11;90.05;92928.59;5069134;28;20049;-83
2021/06/21 06:29:29;;;;;;;5.72;2.60;;;;;;;22.32;90.44;92915.94;5069458;28;20048;-83
2021/06/21 06:31:56;;;;;;;3.38;2.03;;;;;;;22.82;87.10;92928.34;5069518;28;20048;-83
2021/06/21 06:34:23;;;;;;;6.13;1.98;;;;;;;23.08;85.09;92919.94;5069098;28;20049;-83
2021/06/21 06:36:51;;;;;;;4.05;2.30;;;;;;;23.16;84.84;92926.34;5069141;28;20079;-83
2021/06/21 06:39:18;;;;;;;6.25;2.50;;;;;;;23.29;84.09;92926.59;5069388;28;20044;-82
2021/06/21 06:41:45;;;;;;;5.15;2.40;;;;;;;23.70;84.21;92917.78;5068982;28;20053;-83
2021/06/21 06:44:12;;;;;;;4.75;1.92;;;;;;;24.17;81.98;92911.44;5069012;28;20094;-83
2021/06/21 06:46:40;;;;;;;5.10;2.00;;;;;;;24.50;80.33;92916.34;5069356;28;20053;-82
2021/06/21 06:49:07;;;;;;;4.95;2.38;;;;;;;24.82;77.07;92913.69;5070861;28;20132;-83
2021/06/21 06:51:38;;;;;;;6.35;2.60;;;;;;;25.19;76.27;92937.06;5073466;28;20408;-83
2021/06/21 06:54:11;;;;;;;5.90;2.55;;;;;;;25.48;76.44;92918.03;5073102;28;20048;-83
2021/06/21 06:59:22;;;;;;;6.93;2.70;;;;;;;26.09;72.04;92939.31;5073090;28;20051;-82
2021/06/21 07:01:49;;;;;;;5.22;2.20;;;;;;;26.31;73.00;92937.56;5070434;28;20293;-82
2021/06/21 07:04:16;;;;;;;4.22;2.58;;;;;;;26.61;70.70;92927.06;5070736;28;20094;-82
2021/06/21 07:06:43;;;;;;;11.77;5.47;;;;;;;26.52;70.21;92922.59;5071537;28;20048;-83
2021/06/21 07:09:11;;;;;;;15.23;6.15;;;;;;;26.41;68.50;92922.19;5072512;28;20544;-80
2021/06/21 07:11:39;;;;;;;15.20;5.57;;;;;;;26.69;71.62;92928.88;5072672;28;20492;-80
2021/06/21 07:14:06;;;;;;;4.35;2.72;;;;;;;26.55;69.83;92942.28;5072416;28;20048;-80
2021/06/21 07:16:34;;;;;;;12.43;2.65;;;;;;;25.98;71.70;92934.41;5072784;28;20106;-80
2021/06/21 07:19:01;;;;;;;5.95;2.75;;;;;;;26.47;71.84;92940.47;5072387;28;20062;-81
2021/06/21 07:21:28;;;;;;;6.80;2.13;;;;;;;26.84;70.01;92930.19;5072535;28;20060;-81
2021/06/21 07:23:55;;;;;;;5.00;2.58;;;;;;;27.21;69.31;92932.31;5072565;28;20458;-81
2021/06/21 07:26:24;;;;;;;3.30;1.67;;;;;;;27.48;67.49;92941.56;5072427;28;20145;-81
2021/06/21 07:28:51;;;;;;;4.38;2.58;;;;;;;27.69;67.82;92945.31;5072543;28;20048;-81
2021/06/21 07:31:18;;;;;;;1.85;0.98;;;;;;;27.74;64.26;92934.56;5072501;28;20132;-81
2021/06/21 07:33:45;;;;;;;3.33;1.40;;;;;;;28.04;64.87;92944.22;5072314;28;20059;-81
2021/06/21 07:36:12;;;;;;;4.30;1.27;;;;;;;27.99;64.38;92935.38;5072373;28;20101;-81
2021/06/21 07:38:40;;;;;;;2.65;1.73;;;;;;;27.51;64.91;92934.09;5072295;28;20470;-81
2021/06/21 07:41:07;;;;;;;4.40;1.88;;;;;;;26.34;67.38;92931.69;5071842;28;20055;-80
2021/06/21 07:43:35;;;;;;;2.67;1.35;;;;;;;26.64;68.42;92932.47;5072190;28;20045;-81
2021/06/21 07:46:04;;;;;;;2.50;1.52;;;;;;;26.47;67.52;92922.03;5072243;28;20048;-81
2021/06/21 07:48:31;;;;;;;3.40;2.08;;;;;;;26.68;68.93;92927.34;5071952;28;20041;-81
2021/06/21 07:50:59;;;;;;;3.30;2.20;;;;;;;27.15;67.01;92923.81;5071946;28;20515;-81
2021/06/21 07:53:26;;;;;;;3.65;1.80;;;;;;;27.63;66.17;92928.13;5071844;28;20524;-82
2021/06/21 07:55:52;;;;;;;2.13;1.23;;;;;;;27.56;66.41;92921.50;5072131;28;20056;-81
2021/06/21 07:58:19;;;;;;;2.88;1.67;;;;;;;27.47;61.34;92911.03;5071797;28;20504;-81
2021/06/21 08:00:47;;;;;;;2.50;1.13;;;;;;;27.86;63.62;92920.63;5071365;28;20462;-81
2021/06/21 08:03:14;;;;;;;3.08;1.60;;;;;;;28.48;63.83;92927.91;5071840;28;20044;-82
2021/06/21 08:05:43;;;;;;;2.72;1.92;;;;;;;28.70;58.22;92926.69;5071642;28;20565;-82
2021/06/21 08:08:11;;;;;;;3.25;1.83;;;;;;;28.84;59.87;92926.34;5071821;28;20055;-82
2021/06/21 08:10:38;;;;;;;2.65;0.88;;;;;;;29.05;57.85;92931.53;5071655;28;20049;-82
2021/06/21 08:13:05;;;;;;;1.80;0.90;;;;;;;28.37;57.31;92930.22;5071787;28;20110;-82
2021/06/21 08:15:31;;;;;;;1.92;1.02;;;;;;;28.14;57.63;92933.22;5071522;28;20040;-82
2021/06/21 08:18:00;;;;;;;2.95;1.33;;;;;;;27.58;59.96;92934.38;5071298;28;20052;-83
2021/06/21 08:20:27;;;;;;;1.27;0.60;;;;;;;27.37;58.83;92940.41;5071428;28;20053;-82
2021/06/21 08:22:53;;;;;;;4.82;0.80;;;;;;;27.28;56.77;92934.44;5071069;28;20048;-82
2021/06/21 08:25:20;;;;;;;1.95;1.08;;;;;;;27.33;60.31;92942.94;5071309;28;20052;-82
2021/06/21 08:27:48;;;;;;;2.20;1.00;;;;;;;27.77;59.72;92939.16;5071125;28;20036;-82
2021/06/21 08:30:16;;;;;;;1.52;0.85;;;;;;;27.48;59.32;92933.66;5071053;28;20107;-82
2021/06/21 08:32:43;;;;;;;1.30;0.60;;;;;;;27.39;57.98;92932.94;5071152;28;20488;-82
2021/06/21 08:35:13;;;;;;;1.73;0.80;;;;;;;27.68;58.56;92931.34;5071064;28;20605;-82
2021/06/21 08:37:40;;;;;;;1.02;0.52;;;;;;;27.30;57.15;92924.34;5071075;28;20048;-82
2021/06/21 08:40:09;;;;;;;1.33;0.70;;;;;;;27.61;55.41;92944.28;5070709;28;20526;-82
2021/06/21 08:42:37;;;;;;;1.90;0.80;;;;;;;27.57;55.00;92917.75;5070938;28;20507;-81
2021/06/21 08:45:04;;;;;;;6.68;1.17;;;;;;;27.03;54.69;92921.13;5071074;28;20052;-82
2021/06/21 08:47:32;;;;;;;1.42;0.50;;;;;;;27.14;53.26;92926.78;5070737;28;20048;-82
2021/06/21 08:50:01;;;;;;;1.75;0.75;;;;;;;27.38;54.01;92909.53;5070961;28;20045;-82
2021/06/21 08:52:29;;;;;;;1.55;0.63;;;;;;;27.78;55.90;92924.13;5070696;28;20063;-82
2021/06/21 08:55:03;;;;;;;2.08;1.05;;;;;;;28.34;56.09;92929.00;5070527;28;20454;-82
2021/06/21 08:57:30;;;;;;;2.45;0.98;;;;;;;28.19;54.64;92925.06;5071021;28;20150;-83
2021/06/21 08:59:57;;;;;;;1.27;0.70;;;;;;;27.68;54.47;92915.50;5070695;28;20403;-82
2021/06/21 09:02:23;;;;;;;1.27;0.50;;;;;;;28.03;55.38;92908.34;5070474;28;20053;-84
2021/06/21 09:04:50;;;;;;;2.33;0.80;;;;;;;28.19;51.80;92929.59;5070676;28;20045;-83
2021/06/21 09:07:20;;;;;;;1.30;0.60;;;;;;;28.29;53.33;92923.94;5070824;28;20048;-83
2021/06/21 09:09:49;;;;;;;1.50;0.80;;;;;;;28.97;52.65;92913.13;5070481;28;20052;-84
2021/06/21 09:12:21;;;;;;;2.55;0.93;;;;;;;29.59;51.80;92923.56;5069539;28;20040;-84
2021/06/21 09:14:48;;;;;;;2.53;1.58;;;;;;;29.59;50.39;92892.59;5070196;28;20053;-84
2021/06/21 09:17:19;;;;;;;1.75;1.00;;;;;;;29.84;50.19;92918.94;5070176;28;20049;-84
2021/06/21 09:19:51;;;;;;;1.50;0.57;;;;;;;30.25;50.17;92921.50;5070652;28;20084;-84
2021/06/21 09:22:39;;;;;;;1.50;0.70;;;;;;;30.25;50.17;92921.50;5081684;28;20049;-84
2021/06/21 09:25:21;;;;;;;3.38;0.85;;;;;;;30.83;47.56;92932.69;5082691;28;20044;-82
2021/06/21 09:27:54;;;;;;;1.23;0.50;;;;;;;30.73;44.38;92933.19;5070148;28;20415;-85
2021/06/21 09:30:23;;;;;;;2.45;0.75;;;;;;;30.89;45.35;92931.28;5070444;28;20052;-84
2021/06/21 09:32:52;;;;;;;0.98;0.45;;;;;;;31.13;44.09;92920.78;5070245;28;20048;-85
2021/06/21 09:35:39;;;;;;;1.33;0.77;;;;;;;31.03;44.75;92925.53;5070166;28;20069;-85
2021/06/21 09:38:12;;;;;;;0.98;0.40;;;;;;;29.42;43.87;92883.03;5069524;28;20057;-84
2021/06/21 09:40:42;;;;;;;1.23;0.63;;;;;;;29.23;48.35;92927.84;5066831;28;20048;-85
2021/06/21 09:43:20;;;;;;;1.08;0.55;;;;;;;29.55;45.03;92891.72;5069307;28;20412;-85
2021/06/21 09:46:08;;;;;;;1.80;0.80;;;;;;;30.19;43.59;92930.81;5068218;28;20048;-84
2021/06/21 09:48:42;;;;;;;1.33;0.63;;;;;;;30.32;43.26;92914.81;5069214;28;20041;-84
2021/06/21 09:51:25;;;;;;;1.10;0.50;;;;;;;30.29;41.98;92902.25;5069391;28;20044;-85
2021/06/21 09:54:01;;;;;;;0.90;0.50;;;;;;;30.78;42.43;92896.56;5068578;28;21518;-83
2021/06/21 09:56:42;;;;;;;1.20;0.45;;;;;;;31.06;43.73;92906.25;5067694;28;21074;-85
2021/06/21 09:59:25;;;;;;;1.17;0.52;;;;;;;31.51;43.10;92902.63;5068141;28;20094;-87
2021/06/21 10:02:04;;;;;;;1.80;0.65;;;;;;;31.79;41.09;92890.97;5068577;28;20049;-85
2021/06/21 10:04:31;;;;;;;1.30;0.70;;;;;;;31.02;40.28;92889.53;5069799;28;20057;-85
2021/06/21 10:07:01;;;;;;;2.58;0.90;;;;;;;31.06;41.85;92881.63;5070188;28;20060;-87
2021/06/21 10:09:30;;;;;;;1.45;0.57;;;;;;;31.45;44.69;92872.91;5070998;28;20147;-87
2021/06/21 10:11:59;;;;;;;1.00;0.50;;;;;;;31.53;40.98;92871.16;5071064;28;20048;-87
2021/06/21 10:14:28;;;;;;;1.48;0.68;;;;;;;31.66;40.57;92858.50;5069653;28;20045;-86
2021/06/21 10:16:57;;;;;;;3.75;1.08;;;;;;;32.19;40.97;92881.03;5070118;28;20102;-86
2021/06/21 10:19:24;;;;;;;2.92;0.68;;;;;;;32.05;39.68;92882.34;5069400;28;20106;-86
2021/06/21 10:21:55;;;;;;;1.50;0.60;;;;;;;32.45;39.89;92895.53;5069322;28;20063;-86
2021/06/21 10:24:26;;;;;;;1.75;0.68;;;;;;;32.86;39.50;92885.06;5069455;28;20052;-85
2021/06/21 10:27:14;;;;;;;1.23;0.65;;;;;;;32.69;39.02;92859.00;5065048;28;20049;-86
2021/06/21 10:29:43;;;;;;;1.52;0.70;;;;;;;31.76;40.90;92899.63;5064060;28;20053;-85
2021/06/21 10:32:10;;;;;;;1.58;0.70;;;;;;;32.14;40.35;92898.06;5058857;28;20053;-85
2021/06/21 10:34:37;;;;;;;2.72;1.10;;;;;;;32.31;39.46;92856.94;5049066;28;20059;-85
2021/06/21 10:37:25;;;;;;;2.00;0.68;;;;;;;32.64;39.20;92850.22;5049150;28;20049;-85
2021/06/21 10:39:53;;;;;;;1.30;0.70;;;;;;;32.96;37.73;92893.56;5050466;28;20132;-86
2021/06/21 10:42:23;;;;;;;1.30;0.68;;;;;;;31.66;39.37;92891.13;5046426;28;20048;-85
2021/06/21 10:44:56;;;;;;;1.15;0.60;;;;;;;30.37;42.35;92877.47;5060326;28;20143;-85
2021/06/21 10:47:32;;;;;;;1.75;0.85;;;;;;;30.49;43.43;92884.53;5068036;28;20052;-84
2021/06/21 10:50:02;;;;;;;1.42;0.73;;;;;;;30.06;43.04;92855.13;5068998;28;20055;-85
2021/06/21 10:52:46;;;;;;;1.40;0.65;;;;;;;28.91;44.17;92831.41;5069053;28;20053;-86
2021/06/21 10:55:42;;;;;;;3.28;0.70;;;;;;;29.93;44.19;92865.81;5068900;28;20484;-86
2021/06/21 10:58:34;;;;;;;2.45;0.90;;;;;;;29.60;44.14;92843.84;5068700;28;20045;-86
2021/06/21 11:01:13;;;;;;;2.35;0.80;;;;;;;30.00;43.38;92834.22;5068424;28;20135;-85
2021/06/21 11:03:40;;;;;;;1.65;0.70;;;;;;;30.56;42.58;92858.22;5068488;28;20542;-87
2021/06/21 11:06:08;;;;;;;1.42;0.70;;;;;;;30.98;39.57;92843.59;5068021;28;20048;-88
2021/06/21 11:08:45;;;;;;;1.15;0.60;;;;;;;31.38;40.91;92843.59;5060225;28;20511;-87
2021/06/21 11:11:45;;;;;;;1.35;0.60;;;;;;;31.48;39.25;92861.63;5067179;28;20088;-86
2021/06/21 11:14:14;;;;;;;2.15;0.60;;;;;;;31.56;38.67;92865.19;5068518;28;20087;-88
2021/06/21 11:16:44;;;;;;;1.27;0.52;;;;;;;31.76;37.76;92835.91;5072255;28;20045;-88
2021/06/21 11:19:34;;;;;;;1.35;0.60;;;;;;;31.99;39.29;92863.25;5069203;28;20052;-91
2021/06/21 11:22:06;;;;;;;1.20;0.52;;;;;;;32.26;39.06;92850.03;5068392;28;20419;-89
2021/06/21 11:24:56;;;;;;;0.70;0.32;;;;;;;31.28;37.36;92824.47;5068626;28;20049;-88
2021/06/21 11:27:26;;;;;;;1.67;0.80;;;;;;;31.81;39.51;92864.84;5068930;28;20060;-90
2021/06/21 11:29:58;;;;;;;1.20;0.52;;;;;;;30.68;40.20;92820.19;5069213;28;20057;-88
2021/06/21 11:32:27;;;;;;;1.38;0.57;;;;;;;29.92;41.83;92824.56;5068577;28;20063;-88
2021/06/21 11:34:56;;;;;;;1.70;0.70;;;;;;;30.18;42.44;92839.22;5069708;28;20059;-94
2021/06/21 11:37:38;;;;;;;1.33;0.82;;;;;;;29.69;42.16;92811.94;5072321;28;20056;-87
2021/06/21 11:40:29;;;;;;;0.98;0.55;;;;;;;29.93;43.19;92849.16;5072344;28;20048;-92
2021/06/21 11:43:14;;;;;;;1.30;0.63;;;;;;;29.52;42.34;92777.84;5075462;28;20055;-93